Linden, North Carolina
Current Conditions -  °F | °C
As of 10:35 AM on Sunday 21 Dec 2014 (Local Time) from KHRJ Reporting Station
Overcast Overcast  
Wind Chill: 39°   Ceiling: 5500
Heat Index: 43°   Visibility: 10mi
Dew Point: 33°   Wind: 6mph
Humidity: 68%   Direction: 60°ENE
Pressure: 30.33"   Gusts: NA
Location:  35.25°N, 78.75°W
Report Text: KHRJ 211535Z AUTO 06005KT 10SM SCT028 OVC055 06/01 A3033 RMK AO2 T00610005
Loading
Personal Weather Stations






























Interactive Weather Map New forecast layout! Learn more

10-Day Weather Forecast

Advertisements
Track Severe Weather on mobile